Time;durP1;ratioP1;P1;durP2;ratioP2;P2;SDS_P1;SDS_P2;PMS_P1;PMS_P2;Temp;Humidity;BMP_temperature;BMP_pressure;BME280_temperature;BME280_humidity;BME280_pressure;Samples;Min_cycle;Max_cycle;Signal;HPM_P1;HPM_P2
2022/01/28 00:00:32;;;;;;;15.33;4.87;;;;;;;;;;2069821;28;20277;-66
2022/01/28 00:01:44;;;;;;;8.87;3.80;;;;;;;;;;2066114;28;20169;-64
2022/01/28 00:04:12;;;;;;;19.43;4.70;;;;;;;;;;2064942;28;20174;-60
2022/01/28 00:05:17;;;;;;;10.33;4.60;;;;;;;;;;2063748;28;20558;-64
2022/01/28 00:06:19;;;;;;;11.20;4.27;;;;;;;;;;2065195;28;20165;-64
2022/01/28 00:07:19;;;;;;;16.53;4.93;;;;;;;;;;2064596;28;20166;-62
2022/01/28 00:08:19;;;;;;;9.90;4.13;;;;;;;;;;2064121;28;20548;-61
2022/01/28 00:09:19;;;;;;;14.23;4.47;;;;;;;;;;2061874;28;20181;-63
2022/01/28 00:10:20;;;;;;;11.13;4.10;;;;;;;;;;2065395;28;20638;-63
2022/01/28 00:11:20;;;;;;;16.97;4.20;;;;;;;;;;2066524;28;20177;-61
2022/01/28 00:12:21;;;;;;;12.87;3.73;;;;;;;;;;2062195;28;20738;-64
2022/01/28 00:14:29;;;;;;;13.53;3.73;;;;;;;;;;2066156;28;20180;-65
2022/01/28 00:15:42;;;;;;;9.37;3.30;;;;;;;;;;2065985;28;20198;-61
2022/01/28 00:38:36;;;;;;;12.67;4.30;;;;;;;;;;2063343;28;20193;-66
2022/01/28 00:39:36;;;;;;;11.17;3.73;;;;;;;;;;2063863;28;20554;-64
2022/01/28 00:40:37;;;;;;;12.07;3.80;;;;;;;;;;2066657;28;20217;-65
2022/01/28 00:41:37;;;;;;;8.90;3.67;;;;;;;;;;2064733;28;20598;-61
2022/01/28 00:42:37;;;;;;;11.80;3.80;;;;;;;;;;2063290;28;20260;-64
2022/01/28 00:43:37;;;;;;;11.23;3.67;;;;;;;;;;2062446;28;20178;-65
2022/01/28 00:44:38;;;;;;;7.60;3.47;;;;;;;;;;2066412;28;20240;-64
2022/01/28 00:45:38;;;;;;;8.90;3.83;;;;;;;;;;2065813;28;20185;-65
2022/01/28 00:46:38;;;;;;;13.17;4.43;;;;;;;;;;2062924;28;20178;-65
2022/01/28 00:47:38;;;;;;;12.50;3.80;;;;;;;;;;2064040;28;20247;-65
2022/01/28 00:48:39;;;;;;;11.33;4.23;;;;;;;;;;2067646;28;20178;-64
2022/01/28 00:49:39;;;;;;;8.27;3.50;;;;;;;;;;2067978;28;20708;-63
2022/01/28 00:50:42;;;;;;;13.27;3.50;;;;;;;;;;2060333;28;20675;-64
2022/01/28 00:51:42;;;;;;;12.57;4.50;;;;;;;;;;2064324;28;20166;-64
2022/01/28 00:52:42;;;;;;;13.70;3.67;;;;;;;;;;2064684;28;20201;-64
2022/01/28 00:53:43;;;;;;;15.43;4.27;;;;;;;;;;2058689;28;20178;-64
2022/01/28 00:54:43;;;;;;;8.63;4.00;;;;;;;;;;2064911;28;20634;-65
2022/01/28 00:55:43;;;;;;;10.20;3.90;;;;;;;;;;2064917;28;20257;-63
2022/01/28 00:56:44;;;;;;;10.13;3.77;;;;;;;;;;2063946;28;20205;-64
2022/01/28 00:57:44;;;;;;;9.23;3.60;;;;;;;;;;2063689;28;22121;-64
2022/01/28 00:58:44;;;;;;;8.37;3.70;;;;;;;;;;2056888;28;20214;-65
2022/01/28 00:59:45;;;;;;;12.30;4.37;;;;;;;;;;2064455;28;20625;-65
2022/01/28 01:00:45;;;;;;;15.83;3.50;;;;;;;;;;2063972;28;20185;-66
2022/01/28 01:01:45;;;;;;;5.37;2.67;;;;;;;;;;2064701;28;20169;-62
2022/01/28 01:02:45;;;;;;;8.83;3.07;;;;;;;;;;2063700;28;20694;-64
2022/01/28 01:03:46;;;;;;;13.70;3.53;;;;;;;;;;2064246;28;20580;-64
2022/01/28 01:04:46;;;;;;;9.43;3.60;;;;;;;;;;2064170;28;20181;-64
2022/01/28 01:05:46;;;;;;;9.03;3.17;;;;;;;;;;2064164;28;20193;-63
2022/01/28 01:06:47;;;;;;;11.13;3.57;;;;;;;;;;2063650;28;20651;-65
2022/01/28 01:07:47;;;;;;;9.40;3.77;;;;;;;;;;2064181;28;20177;-65
2022/01/28 01:08:47;;;;;;;12.83;4.50;;;;;;;;;;2064170;28;20190;-65
2022/01/28 01:09:49;;;;;;;7.93;3.93;;;;;;;;;;2064486;28;20583;-64
2022/01/28 01:10:52;;;;;;;14.70;4.10;;;;;;;;;;2063879;28;20539;-64
2022/01/28 01:11:52;;;;;;;10.03;3.33;;;;;;;;;;2063191;28;20178;-65
2022/01/28 01:12:53;;;;;;;11.03;3.70;;;;;;;;;;2063009;28;20341;-63
2022/01/28 01:13:53;;;;;;;12.47;3.77;;;;;;;;;;2063758;28;20525;-63
2022/01/28 01:14:54;;;;;;;12.77;3.23;;;;;;;;;;2063566;28;20268;-65
2022/01/28 01:15:58;;;;;;;8.83;3.13;;;;;;;;;;2064998;28;20169;-66
2022/01/28 01:17:14;;;;;;;8.93;3.47;;;;;;;;;;2063963;28;20232;-63
2022/01/28 01:18:23;;;;;;;12.07;3.73;;;;;;;;;;2060963;28;20174;-65
2022/01/28 01:19:26;;;;;;;9.47;3.17;;;;;;;;;;2061841;28;20162;-65
2022/01/28 01:21:29;;;;;;;9.97;4.00;;;;;;;;;;2061383;28;20174;-64
2022/01/28 01:22:36;;;;;;;13.53;3.93;;;;;;;;;;2063779;28;20209;-65
2022/01/28 01:23:39;;;;;;;12.50;3.47;;;;;;;;;;2064218;28;20205;-66
2022/01/28 01:24:49;;;;;;;7.87;3.30;;;;;;;;;;2059378;28;20576;-64
2022/01/28 01:26:50;;;;;;;10.83;4.13;;;;;;;;;;2063512;28;20197;-62
2022/01/28 01:27:54;;;;;;;14.20;4.17;;;;;;;;;;2056525;28;20264;-65
2022/01/28 01:28:54;;;;;;;12.10;4.50;;;;;;;;;;2063599;28;20178;-65
2022/01/28 01:29:54;;;;;;;11.90;4.83;;;;;;;;;;2064308;28;20174;-63
2022/01/28 01:30:57;;;;;;;11.33;4.57;;;;;;;;;;2063345;28;20185;-66
2022/01/28 01:32:02;;;;;;;10.60;4.20;;;;;;;;;;2063582;28;20251;-65
2022/01/28 01:33:03;;;;;;;13.20;4.13;;;;;;;;;;2064102;28;22446;-64
2022/01/28 01:34:19;;;;;;;13.53;4.20;;;;;;;;;;2063967;28;20177;-65
2022/01/28 01:35:19;;;;;;;11.87;4.30;;;;;;;;;;2065263;28;20177;-64
2022/01/28 01:36:19;;;;;;;17.33;4.57;;;;;;;;;;2065521;28;20679;-65
2022/01/28 01:37:19;;;;;;;12.03;4.77;;;;;;;;;;2064862;28;20205;-63
2022/01/28 01:38:25;;;;;;;11.97;4.23;;;;;;;;;;2065344;28;20178;-65
2022/01/28 01:39:30;;;;;;;12.93;4.10;;;;;;;;;;2063903;28;20185;-65
2022/01/28 01:40:35;;;;;;;11.73;4.10;;;;;;;;;;2065878;28;20186;-64
2022/01/28 01:41:43;;;;;;;18.20;4.37;;;;;;;;;;2064915;28;20170;-65
2022/01/28 01:42:50;;;;;;;11.40;4.03;;;;;;;;;;2063479;28;20166;-66
2022/01/28 01:52:58;;;;;;;13.63;3.53;;;;;;;;;;2070036;28;20173;-66
2022/01/28 01:53:59;;;;;;;10.47;3.97;;;;;;;;;;2071466;28;20205;-64
2022/01/28 01:54:59;;;;;;;11.60;3.27;;;;;;;;;;2066950;28;20269;-64
2022/01/28 01:56:00;;;;;;;21.23;4.57;;;;;;;;;;2066904;28;20182;-63
2022/01/28 01:57:00;;;;;;;15.90;4.53;;;;;;;;;;2066715;28;20239;-65
2022/01/28 01:58:00;;;;;;;12.00;4.13;;;;;;;;;;2062345;28;20182;-66
2022/01/28 01:59:01;;;;;;;17.03;4.30;;;;;;;;;;2065437;28;20192;-64
2022/01/28 02:00:02;;;;;;;13.50;3.90;;;;;;;;;;2065174;28;20229;-63
2022/01/28 02:01:03;;;;;;;13.03;4.07;;;;;;;;;;2065574;28;20170;-64
2022/01/28 02:02:03;;;;;;;16.83;4.90;;;;;;;;;;2061554;28;20214;-65
2022/01/28 02:03:03;;;;;;;14.97;4.27;;;;;;;;;;2065215;28;20206;-65
2022/01/28 02:04:04;;;;;;;16.40;4.33;;;;;;;;;;2065248;28;20213;-63
2022/01/28 02:05:04;;;;;;;15.37;4.40;;;;;;;;;;2065519;28;20178;-64
2022/01/28 02:06:04;;;;;;;11.50;4.30;;;;;;;;;;2061001;28;20173;-65
2022/01/28 02:07:05;;;;;;;15.53;4.57;;;;;;;;;;2065543;28;20177;-62
2022/01/28 02:08:06;;;;;;;14.40;4.53;;;;;;;;;;2063969;28;20241;-63
2022/01/28 02:09:08;;;;;;;11.67;4.63;;;;;;;;;;2064842;28;20185;-64
2022/01/28 02:10:08;;;;;;;11.53;4.83;;;;;;;;;;2060813;28;20572;-65
2022/01/28 02:11:08;;;;;;;17.60;4.87;;;;;;;;;;2064440;28;20169;-65
2022/01/28 02:12:09;;;;;;;19.90;5.23;;;;;;;;;;2065559;28;20204;-63
2022/01/28 02:13:09;;;;;;;20.47;4.60;;;;;;;;;;2065125;28;20635;-64
2022/01/28 02:14:09;;;;;;;11.53;4.27;;;;;;;;;;2065044;28;20607;-65
2022/01/28 02:15:09;;;;;;;16.17;4.30;;;;;;;;;;2064603;28;20188;-66
2022/01/28 02:16:10;;;;;;;13.57;4.17;;;;;;;;;;2065458;28;20272;-62
2022/01/28 02:17:10;;;;;;;18.33;4.30;;;;;;;;;;2063076;28;20197;-65
2022/01/28 02:18:10;;;;;;;10.57;4.37;;;;;;;;;;2063795;28;20205;-65
2022/01/28 02:19:11;;;;;;;15.50;4.43;;;;;;;;;;2062325;28;20170;-64
2022/01/28 02:20:17;;;;;;;20.07;4.60;;;;;;;;;;2060830;28;20680;-66
2022/01/28 02:21:18;;;;;;;13.87;4.00;;;;;;;;;;2061709;28;20257;-66
2022/01/28 02:22:20;;;;;;;14.07;4.90;;;;;;;;;;2063278;28;20209;-66
2022/01/28 02:23:22;;;;;;;15.27;4.10;;;;;;;;;;2064960;28;20336;-65
2022/01/28 02:24:29;;;;;;;12.43;4.30;;;;;;;;;;2062081;28;20170;-62
2022/01/28 02:25:31;;;;;;;13.77;4.43;;;;;;;;;;2063869;28;20216;-64
2022/01/28 02:26:31;;;;;;;7.97;3.67;;;;;;;;;;2064871;28;20194;-61
2022/01/28 02:27:31;;;;;;;7.90;4.60;;;;;;;;;;2065240;28;20504;-64
2022/01/28 02:28:36;;;;;;;13.97;4.13;;;;;;;;;;2065646;28;20178;-64
2022/01/28 02:29:37;;;;;;;14.47;5.00;;;;;;;;;;2059046;28;20257;-62
2022/01/28 02:30:37;;;;;;;11.23;3.67;;;;;;;;;;2065204;28;20174;-64
2022/01/28 02:31:38;;;;;;;13.97;4.67;;;;;;;;;;2065354;28;20201;-64
2022/01/28 02:32:38;;;;;;;14.40;4.10;;;;;;;;;;2061592;28;20206;-64
2022/01/28 02:33:39;;;;;;;10.17;4.00;;;;;;;;;;2065071;28;20177;-62
2022/01/28 02:34:40;;;;;;;15.03;4.50;;;;;;;;;;2058269;28;20214;-65
2022/01/28 02:35:44;;;;;;;8.53;4.07;;;;;;;;;;2064432;28;20181;-64
2022/01/28 02:36:44;;;;;;;13.07;4.57;;;;;;;;;;2065761;28;20202;-62
2022/01/28 02:37:44;;;;;;;11.40;3.73;;;;;;;;;;2058153;28;20185;-66
2022/01/28 02:38:45;;;;;;;13.07;3.90;;;;;;;;;;2064954;28;20596;-65
2022/01/28 02:39:45;;;;;;;9.17;4.27;;;;;;;;;;2057472;28;20676;-66
2022/01/28 02:40:50;;;;;;;11.17;3.93;;;;;;;;;;2059382;28;20268;-65
2022/01/28 02:41:54;;;;;;;8.23;3.13;;;;;;;;;;2064604;28;20376;-65
2022/01/28 02:45:02;;;;;;;10.30;3.50;;;;;;;;;;2065215;28;20170;-65
2022/01/28 02:46:07;;;;;;;11.90;3.67;;;;;;;;;;2064230;28;20165;-64
2022/01/28 02:47:12;;;;;;;8.13;3.70;;;;;;;;;;2063702;28;20261;-66
2022/01/28 02:48:17;;;;;;;10.30;3.60;;;;;;;;;;2064558;28;20201;-64
2022/01/28 02:49:18;;;;;;;15.00;4.17;;;;;;;;;;2065017;28;20185;-63
2022/01/28 02:50:18;;;;;;;12.00;3.70;;;;;;;;;;2064373;28;20189;-64
2022/01/28 02:51:20;;;;;;;10.50;3.97;;;;;;;;;;2063929;28;20176;-65
2022/01/28 02:52:30;;;;;;;8.00;3.47;;;;;;;;;;2065296;28;20198;-64
2022/01/28 02:53:41;;;;;;;6.77;3.10;;;;;;;;;;2061960;28;20186;-65
2022/01/28 02:54:46;;;;;;;8.87;4.03;;;;;;;;;;2064647;28;20216;-65
2022/01/28 02:55:46;;;;;;;8.50;3.87;;;;;;;;;;2062729;28;20603;-63
2022/01/28 02:56:48;;;;;;;9.40;3.87;;;;;;;;;;2064785;28;20216;-63
2022/01/28 02:58:02;;;;;;;15.17;4.60;;;;;;;;;;2063974;28;20199;-65
2022/01/28 02:59:03;;;;;;;14.20;4.10;;;;;;;;;;2064333;28;20157;-65
2022/01/28 03:00:04;;;;;;;14.97;4.03;;;;;;;;;;2065569;28;20236;-65
2022/01/28 03:01:04;;;;;;;11.17;4.07;;;;;;;;;;2064778;28;20189;-65
2022/01/28 03:02:05;;;;;;;12.40;3.90;;;;;;;;;;2065332;28;20665;-66
2022/01/28 03:03:05;;;;;;;11.87;4.10;;;;;;;;;;2063000;28;20198;-65
2022/01/28 03:04:07;;;;;;;12.60;4.20;;;;;;;;;;2062261;28;20197;-64
2022/01/28 03:06:08;;;;;;;11.30;3.40;;;;;;;;;;2060744;28;20169;-63
2022/01/28 03:07:08;;;;;;;13.37;4.67;;;;;;;;;;2063251;28;20181;-64
2022/01/28 03:08:09;;;;;;;15.40;3.77;;;;;;;;;;2064794;28;20192;-65
2022/01/28 03:09:19;;;;;;;8.43;3.87;;;;;;;;;;2083385;23;20256;-56
2022/01/28 03:10:43;;;;;;;17.47;4.00;;;;;;;;;;2062172;28;20686;-55
2022/01/28 03:11:46;;;;;;;9.27;3.90;;;;;;;;;;2063969;28;20173;-60
2022/01/28 03:13:15;;;;;;;11.17;4.17;;;;;;;;;;2065451;28;20229;-58
2022/01/28 03:15:21;;;;;;;14.17;4.37;;;;;;;;;;2065809;28;20188;-52
2022/01/28 03:16:22;;;;;;;13.03;4.20;;;;;;;;;;2065541;28;20176;-58
2022/01/28 03:19:15;;;;;;;17.60;4.03;;;;;;;;;;2064314;28;20805;-57
2022/01/28 03:20:33;;;;;;;10.77;4.00;;;;;;;;;;2052427;28;20679;-59
2022/01/28 03:22:33;;;;;;;16.67;4.57;;;;;;;;;;2057267;28;20202;-57
2022/01/28 03:23:37;;;;;;;10.13;4.33;;;;;;;;;;2057044;28;20266;-62
2022/01/28 03:24:40;;;;;;;12.63;3.70;;;;;;;;;;2057074;28;20253;-60
2022/01/28 03:25:43;;;;;;;12.10;3.97;;;;;;;;;;2057546;28;20177;-59
2022/01/28 03:26:43;;;;;;;11.87;3.70;;;;;;;;;;2056628;28;20524;-55
2022/01/28 03:27:50;;;;;;;13.53;4.17;;;;;;;;;;2056286;28;20177;-58
2022/01/28 03:28:51;;;;;;;8.73;3.53;;;;;;;;;;2050449;28;20167;-57
2022/01/28 03:29:51;;;;;;;14.20;3.90;;;;;;;;;;2057304;28;20257;-57
2022/01/28 03:30:51;;;;;;;10.00;4.37;;;;;;;;;;2057696;28;20261;-57
2022/01/28 03:31:52;;;;;;;10.20;4.33;;;;;;;;;;2057186;28;20182;-52
2022/01/28 03:32:53;;;;;;;10.43;3.57;;;;;;;;;;2057595;28;20181;-54
2022/01/28 03:33:53;;;;;;;14.70;4.20;;;;;;;;;;2056950;28;20338;-57
2022/01/28 03:34:53;;;;;;;17.47;4.50;;;;;;;;;;2057063;28;20198;-56
2022/01/28 03:35:53;;;;;;;9.83;3.47;;;;;;;;;;2057437;28;20202;-57
2022/01/28 03:36:56;;;;;;;8.37;3.87;;;;;;;;;;2057450;28;20209;-54
2022/01/28 03:38:01;;;;;;;11.83;3.70;;;;;;;;;;2057359;28;20174;-59
2022/01/28 03:39:02;;;;;;;11.43;4.13;;;;;;;;;;2057331;28;20179;-55
2022/01/28 03:40:04;;;;;;;6.80;3.50;;;;;;;;;;2056589;28;20174;-62
2022/01/28 03:41:06;;;;;;;18.57;5.03;;;;;;;;;;2058181;28;20174;-58
2022/01/28 03:42:06;;;;;;;9.13;3.60;;;;;;;;;;2055109;28;20228;-53
2022/01/28 03:43:07;;;;;;;14.83;4.63;;;;;;;;;;2052192;28;20629;-53
2022/01/28 03:44:07;;;;;;;8.70;3.13;;;;;;;;;;2052723;28;20190;-58
2022/01/28 03:45:08;;;;;;;11.93;4.43;;;;;;;;;;2052298;28;20209;-57
2022/01/28 03:46:09;;;;;;;12.53;4.23;;;;;;;;;;2052090;28;20240;-54
2022/01/28 03:47:10;;;;;;;11.97;3.93;;;;;;;;;;2055545;28;20249;-55
2022/01/28 03:48:10;;;;;;;12.47;4.17;;;;;;;;;;2047373;28;20319;-55
2022/01/28 03:49:10;;;;;;;10.87;3.93;;;;;;;;;;2050476;28;20194;-55
2022/01/28 03:50:11;;;;;;;9.87;3.57;;;;;;;;;;2056128;28;20206;-53
2022/01/28 03:51:11;;;;;;;11.97;4.10;;;;;;;;;;2052697;28;20241;-56
2022/01/28 03:52:11;;;;;;;11.50;4.70;;;;;;;;;;2055939;28;20186;-58
2022/01/28 03:53:11;;;;;;;10.53;3.30;;;;;;;;;;2056519;28;20177;-61
2022/01/28 03:54:12;;;;;;;14.60;4.27;;;;;;;;;;2057074;28;20188;-60
2022/01/28 03:55:12;;;;;;;14.33;4.33;;;;;;;;;;2056342;28;20182;-55
2022/01/28 03:56:12;;;;;;;10.07;3.87;;;;;;;;;;2053809;28;20596;-54
2022/01/28 03:57:13;;;;;;;13.57;3.57;;;;;;;;;;2051032;28;20193;-53
2022/01/28 03:58:14;;;;;;;11.17;3.80;;;;;;;;;;2056739;28;20647;-55
2022/01/28 03:59:14;;;;;;;12.70;4.47;;;;;;;;;;2055884;28;20210;-57
2022/01/28 04:00:14;;;;;;;11.53;4.03;;;;;;;;;;2056219;28;20182;-58
2022/01/28 04:01:29;;;;;;;12.93;4.50;;;;;;;;;;2056264;28;20182;-55
2022/01/28 04:02:33;;;;;;;14.03;4.70;;;;;;;;;;2056006;28;20193;-59
2022/01/28 04:12:08;;;;;;;12.63;3.87;;;;;;;;;;2053125;28;20173;-54
2022/01/28 04:13:10;;;;;;;13.90;4.43;;;;;;;;;;2055926;28;20532;-53
2022/01/28 04:14:20;;;;;;;10.27;4.43;;;;;;;;;;2055567;28;20221;-60
2022/01/28 04:15:37;;;;;;;13.07;4.13;;;;;;;;;;2056040;28;20193;-51
2022/01/28 04:17:56;;;;;;;10.67;3.80;;;;;;;;;;2055811;28;20189;-55
2022/01/28 04:18:57;;;;;;;15.83;4.20;;;;;;;;;;2057001;28;20194;-58
2022/01/28 04:19:57;;;;;;;15.27;4.90;;;;;;;;;;2053506;28;20374;-60
2022/01/28 04:20:57;;;;;;;11.13;4.30;;;;;;;;;;2057394;28;20174;-60
2022/01/28 04:21:58;;;;;;;14.63;5.50;;;;;;;;;;2052734;28;20202;-58
2022/01/28 04:22:58;;;;;;;13.83;4.97;;;;;;;;;;2057210;28;20233;-57
2022/01/28 04:23:58;;;;;;;18.13;4.33;;;;;;;;;;2056492;28;20182;-56
2022/01/28 04:24:58;;;;;;;12.33;4.40;;;;;;;;;;2055929;28;20193;-53
2022/01/28 04:25:59;;;;;;;13.53;4.53;;;;;;;;;;2055904;28;20178;-58
2022/01/28 04:26:59;;;;;;;16.87;5.23;;;;;;;;;;2056240;28;20170;-60
2022/01/28 04:27:59;;;;;;;8.40;4.17;;;;;;;;;;2055714;28;20171;-60
2022/01/28 04:29:00;;;;;;;11.30;4.23;;;;;;;;;;2055595;28;20177;-60
2022/01/28 04:30:00;;;;;;;10.87;4.37;;;;;;;;;;2056154;28;20182;-53
2022/01/28 04:31:00;;;;;;;15.43;4.60;;;;;;;;;;2056878;28;20176;-55
2022/01/28 04:32:01;;;;;;;14.90;4.80;;;;;;;;;;2054736;28;20258;-52
2022/01/28 04:33:01;;;;;;;12.67;5.10;;;;;;;;;;2056481;28;20174;-54
2022/01/28 04:34:02;;;;;;;14.67;4.67;;;;;;;;;;2054284;28;20608;-57
2022/01/28 04:35:02;;;;;;;11.43;4.80;;;;;;;;;;2056878;28;20186;-57
2022/01/28 04:36:04;;;;;;;13.33;4.83;;;;;;;;;;2054079;28;20185;-53
2022/01/28 04:39:28;;;;;;;9.73;4.23;;;;;;;;;;2052990;28;20292;-57
2022/01/28 04:40:33;;;;;;;15.83;4.47;;;;;;;;;;2055708;28;20635;-56
2022/01/28 04:41:59;;;;;;;13.67;4.30;;;;;;;;;;2056302;28;20222;-58
2022/01/28 04:43:22;;;;;;;22.00;5.20;;;;;;;;;;2051968;28;20214;-60
2022/01/28 04:44:32;;;;;;;16.70;4.53;;;;;;;;;;2056420;28;20174;-58
2022/01/28 04:45:47;;;;;;;12.60;4.83;;;;;;;;;;2055363;28;20717;-62
2022/01/28 04:46:58;;;;;;;11.63;4.43;;;;;;;;;;2055088;28;20170;-58
2022/01/28 04:48:12;;;;;;;15.23;4.57;;;;;;;;;;2051003;28;20265;-59
2022/01/28 04:49:19;;;;;;;11.73;3.90;;;;;;;;;;2052850;28;20206;-56
2022/01/28 04:50:35;;;;;;;11.00;4.10;;;;;;;;;;2061217;28;20683;-60
2022/01/28 04:56:27;;;;;;;11.50;4.43;;;;;;;;;;2052803;28;20254;-58
2022/01/28 04:57:50;;;;;;;14.93;5.23;;;;;;;;;;2055293;28;20181;-59
2022/01/28 05:05:12;;;;;;;13.23;4.77;;;;;;;;;;2056946;28;20210;-53
2022/01/28 05:07:33;;;;;;;12.83;4.57;;;;;;;;;;2056431;28;20240;-58
2022/01/28 05:11:36;;;;;;;9.47;4.47;;;;;;;;;;2057309;28;20166;-58
2022/01/28 05:15:14;;;;;;;14.93;4.60;;;;;;;;;;2056727;28;20234;-59
2022/01/28 05:27:17;;;;;;;14.27;4.73;;;;;;;;;;2056987;28;20190;-57
2022/01/28 05:28:21;;;;;;;17.40;5.20;;;;;;;;;;2057605;28;20189;-58
2022/01/28 05:29:21;;;;;;;16.43;5.10;;;;;;;;;;2057376;28;20273;-57
2022/01/28 05:30:21;;;;;;;13.73;4.83;;;;;;;;;;2058019;28;20182;-60
2022/01/28 05:31:22;;;;;;;15.80;4.67;;;;;;;;;;2057675;28;20209;-59
2022/01/28 05:32:22;;;;;;;9.80;4.57;;;;;;;;;;2057619;28;20170;-54
2022/01/28 05:33:22;;;;;;;17.73;5.27;;;;;;;;;;2057841;28;20174;-58
2022/01/28 05:34:25;;;;;;;21.23;5.07;;;;;;;;;;2058346;28;20684;-53
2022/01/28 05:35:27;;;;;;;12.10;4.80;;;;;;;;;;2057446;28;20178;-59
2022/01/28 05:36:27;;;;;;;17.67;6.13;;;;;;;;;;2057777;28;20624;-57
2022/01/28 05:37:27;;;;;;;13.73;4.63;;;;;;;;;;2058171;28;20174;-54
2022/01/28 05:38:27;;;;;;;16.47;5.20;;;;;;;;;;2059662;28;20669;-59
2022/01/28 05:39:28;;;;;;;12.73;4.93;;;;;;;;;;2059323;28;20194;-57
2022/01/28 05:40:28;;;;;;;15.60;5.33;;;;;;;;;;2060223;28;20206;-58
2022/01/28 05:41:28;;;;;;;14.20;5.00;;;;;;;;;;2060671;28;20193;-60
2022/01/28 05:42:28;;;;;;;17.33;5.70;;;;;;;;;;2057605;28;20627;-59
2022/01/28 05:43:29;;;;;;;11.53;5.13;;;;;;;;;;2057846;28;20225;-55
2022/01/28 05:44:29;;;;;;;16.43;5.50;;;;;;;;;;2059412;28;20206;-56
2022/01/28 05:45:29;;;;;;;13.20;4.77;;;;;;;;;;2061963;28;20890;-56
2022/01/28 05:46:30;;;;;;;16.60;4.57;;;;;;;;;;2062728;28;20174;-56
2022/01/28 05:47:35;;;;;;;14.67;5.10;;;;;;;;;;2062745;28;20162;-55
2022/01/28 05:48:35;;;;;;;16.40;5.40;;;;;;;;;;2062950;28;20181;-52
2022/01/28 05:49:36;;;;;;;20.07;4.87;;;;;;;;;;2062889;28;20186;-53
2022/01/28 05:50:36;;;;;;;17.00;4.53;;;;;;;;;;2060595;28;20178;-51
2022/01/28 05:51:36;;;;;;;11.97;4.30;;;;;;;;;;2058650;28;20210;-54
2022/01/28 05:52:36;;;;;;;15.27;4.73;;;;;;;;;;2057926;28;20174;-52
2022/01/28 05:53:37;;;;;;;17.17;5.07;;;;;;;;;;2057519;28;20182;-57
2022/01/28 05:54:37;;;;;;;16.23;5.20;;;;;;;;;;2059351;28;20178;-54
2022/01/28 05:55:38;;;;;;;16.03;5.37;;;;;;;;;;2058275;28;20186;-56
2022/01/28 05:56:38;;;;;;;14.97;5.40;;;;;;;;;;2059041;28;20182;-52
2022/01/28 05:57:38;;;;;;;18.03;4.83;;;;;;;;;;2057153;28;20261;-58
2022/01/28 05:58:38;;;;;;;17.67;5.20;;;;;;;;;;2060765;28;20179;-55
2022/01/28 05:59:39;;;;;;;13.70;5.13;;;;;;;;;;2062812;28;20198;-52
2022/01/28 06:00:39;;;;;;;18.10;4.63;;;;;;;;;;2063345;28;20216;-56
2022/01/28 06:01:39;;;;;;;16.27;4.87;;;;;;;;;;2059554;28;20205;-57
2022/01/28 06:02:40;;;;;;;21.17;5.50;;;;;;;;;;2059373;28;20175;-57
2022/01/28 06:03:40;;;;;;;19.43;4.77;;;;;;;;;;2058589;28;20174;-57
2022/01/28 06:04:40;;;;;;;15.17;4.13;;;;;;;;;;2059053;28;20178;-59
2022/01/28 06:05:41;;;;;;;16.87;4.80;;;;;;;;;;2060127;28;20170;-51
2022/01/28 06:06:41;;;;;;;15.33;4.97;;;;;;;;;;2059292;28;20232;-56
2022/01/28 06:07:42;;;;;;;20.13;5.97;;;;;;;;;;2058739;28;20178;-59
2022/01/28 06:08:42;;;;;;;12.63;4.63;;;;;;;;;;2058785;28;20233;-54
2022/01/28 06:09:42;;;;;;;11.70;4.63;;;;;;;;;;2059054;28;20206;-57
2022/01/28 06:10:42;;;;;;;8.27;4.67;;;;;;;;;;2057303;28;20182;-61
2022/01/28 06:11:45;;;;;;;16.70;5.33;;;;;;;;;;2058245;28;20171;-58
2022/01/28 06:12:47;;;;;;;21.23;5.50;;;;;;;;;;2049955;28;20171;-58
2022/01/28 06:13:47;;;;;;;14.27;5.00;;;;;;;;;;2049832;29;20214;-59
2022/01/28 06:14:48;;;;;;;12.93;4.93;;;;;;;;;;2051204;28;20182;-59
2022/01/28 06:15:48;;;;;;;14.83;5.43;;;;;;;;;;2051970;29;20234;-58
2022/01/28 06:16:48;;;;;;;17.87;5.27;;;;;;;;;;2059460;28;20194;-59
2022/01/28 06:17:48;;;;;;;14.63;5.03;;;;;;;;;;2060147;28;20234;-58
2022/01/28 06:18:49;;;;;;;14.90;4.60;;;;;;;;;;2060229;28;20694;-58
2022/01/28 06:19:49;;;;;;;20.27;6.00;;;;;;;;;;2062139;28;20174;-56
2022/01/28 06:20:49;;;;;;;10.37;5.13;;;;;;;;;;2060200;28;20179;-60
2022/01/28 06:21:50;;;;;;;15.07;5.17;;;;;;;;;;2065292;28;20182;-60
2022/01/28 06:22:50;;;;;;;12.87;5.17;;;;;;;;;;2061926;28;20177;-62
2022/01/28 06:23:52;;;;;;;19.40;5.80;;;;;;;;;;2058373;28;20170;-59
2022/01/28 06:24:52;;;;;;;15.43;5.23;;;;;;;;;;2058181;28;20171;-60
2022/01/28 06:25:52;;;;;;;10.97;4.87;;;;;;;;;;2057510;28;20615;-56
2022/01/28 06:26:52;;;;;;;16.80;5.10;;;;;;;;;;2061911;28;20188;-58
2022/01/28 06:27:53;;;;;;;17.27;5.70;;;;;;;;;;2065225;28;20173;-61
2022/01/28 06:28:53;;;;;;;12.07;4.97;;;;;;;;;;2058747;28;20185;-58
2022/01/28 06:29:53;;;;;;;11.20;4.23;;;;;;;;;;2057584;28;20272;-60
2022/01/28 06:30:54;;;;;;;13.93;5.17;;;;;;;;;;2057717;28;20233;-59
2022/01/28 06:31:54;;;;;;;12.10;5.13;;;;;;;;;;2054634;28;20190;-60
2022/01/28 06:32:55;;;;;;;17.23;5.27;;;;;;;;;;2057839;28;20178;-63
2022/01/28 06:33:55;;;;;;;16.27;4.63;;;;;;;;;;2057559;28;20187;-57
2022/01/28 06:34:56;;;;;;;15.97;5.77;;;;;;;;;;2057626;28;20257;-59
2022/01/28 06:35:56;;;;;;;12.40;4.77;;;;;;;;;;2057380;28;20574;-62
2022/01/28 06:36:57;;;;;;;12.93;4.97;;;;;;;;;;2057827;28;20270;-52
2022/01/28 06:37:57;;;;;;;17.80;5.37;;;;;;;;;;2057362;28;20175;-59
2022/01/28 06:38:57;;;;;;;16.00;6.27;;;;;;;;;;2051291;28;20175;-61
2022/01/28 06:39:58;;;;;;;16.97;4.60;;;;;;;;;;2057660;28;20174;-60
2022/01/28 06:40:58;;;;;;;13.27;5.67;;;;;;;;;;2057752;28;20548;-60
2022/01/28 06:41:59;;;;;;;21.70;5.63;;;;;;;;;;2057615;28;20537;-59
2022/01/28 06:42:59;;;;;;;15.80;4.87;;;;;;;;;;2057549;28;20198;-54
2022/01/28 06:43:59;;;;;;;15.43;4.80;;;;;;;;;;2057569;28;20177;-59
2022/01/28 06:45:00;;;;;;;18.57;5.60;;;;;;;;;;2055845;28;20566;-58
2022/01/28 06:46:00;;;;;;;14.43;5.10;;;;;;;;;;2057391;28;20627;-62
2022/01/28 06:47:01;;;;;;;9.80;5.17;;;;;;;;;;2056534;28;20210;-57
2022/01/28 06:48:01;;;;;;;13.73;5.10;;;;;;;;;;2053724;28;20250;-56
2022/01/28 06:49:01;;;;;;;16.80;5.73;;;;;;;;;;2054185;28;20552;-60
2022/01/28 06:50:06;;;;;;;13.17;4.50;;;;;;;;;;2056576;28;20544;-61
2022/01/28 06:51:06;;;;;;;22.47;5.73;;;;;;;;;;2051982;28;20236;-59
2022/01/28 06:52:07;;;;;;;12.93;4.60;;;;;;;;;;2053569;28;20610;-61
2022/01/28 06:53:09;;;;;;;12.00;4.27;;;;;;;;;;2056389;28;20186;-57
2022/01/28 06:54:09;;;;;;;16.93;5.80;;;;;;;;;;2053500;28;20198;-61
2022/01/28 06:55:10;;;;;;;20.20;5.20;;;;;;;;;;2056814;28;20672;-60
2022/01/28 06:56:10;;;;;;;15.23;5.13;;;;;;;;;;2055859;28;20354;-59
2022/01/28 06:57:10;;;;;;;29.47;13.10;;;;;;;;;;2056343;28;20259;-60
2022/01/28 06:58:11;;;;;;;22.90;10.17;;;;;;;;;;2055615;28;20514;-59
2022/01/28 06:59:11;;;;;;;20.00;7.40;;;;;;;;;;2055608;28;20197;-57
2022/01/28 07:00:12;;;;;;;17.10;6.70;;;;;;;;;;2053154;28;20187;-58
2022/01/28 07:01:12;;;;;;;15.10;4.87;;;;;;;;;;2055781;28;20655;-59
2022/01/28 07:02:12;;;;;;;16.00;5.90;;;;;;;;;;2056471;28;20182;-57
2022/01/28 07:03:16;;;;;;;11.23;5.10;;;;;;;;;;2056746;28;20726;-63
2022/01/28 07:04:16;;;;;;;17.37;5.30;;;;;;;;;;2056591;28;20178;-60
2022/01/28 07:05:17;;;;;;;15.13;5.00;;;;;;;;;;2056952;28;20280;-60
2022/01/28 07:06:19;;;;;;;10.77;5.27;;;;;;;;;;2056162;28;20178;-62
2022/01/28 07:07:22;;;;;;;15.90;5.50;;;;;;;;;;2056362;28;20816;-59
2022/01/28 07:08:24;;;;;;;16.90;6.13;;;;;;;;;;2056551;28;20238;-60
2022/01/28 07:09:25;;;;;;;18.70;5.27;;;;;;;;;;2056390;28;20736;-63
2022/01/28 07:10:25;;;;;;;14.40;5.17;;;;;;;;;;2054472;28;20193;-61
2022/01/28 07:11:25;;;;;;;17.20;5.63;;;;;;;;;;2056397;28;20182;-60
2022/01/28 07:12:26;;;;;;;25.37;5.30;;;;;;;;;;2055732;28;20172;-55
2022/01/28 07:13:26;;;;;;;16.27;5.47;;;;;;;;;;2056259;28;20530;-63
2022/01/28 07:14:26;;;;;;;17.43;4.83;;;;;;;;;;2053620;28;20575;-63
2022/01/28 07:15:27;;;;;;;12.73;5.23;;;;;;;;;;2053654;28;20187;-60
2022/01/28 07:16:29;;;;;;;12.87;5.80;;;;;;;;;;2053947;28;20167;-61
2022/01/28 07:17:30;;;;;;;14.53;5.07;;;;;;;;;;2054400;28;20192;-63
2022/01/28 07:18:30;;;;;;;16.10;5.67;;;;;;;;;;2055226;28;20182;-63
2022/01/28 07:19:30;;;;;;;20.50;5.40;;;;;;;;;;2055854;28;20190;-63
2022/01/28 07:20:31;;;;;;;17.17;5.40;;;;;;;;;;2055813;28;20190;-63
2022/01/28 07:21:31;;;;;;;15.50;5.07;;;;;;;;;;2053554;28;20266;-63
2022/01/28 07:22:31;;;;;;;11.97;5.47;;;;;;;;;;2052463;28;20179;-63
2022/01/28 07:23:32;;;;;;;17.17;5.67;;;;;;;;;;2055521;28;20229;-64
2022/01/28 07:24:32;;;;;;;20.17;5.90;;;;;;;;;;2054963;28;20174;-65
2022/01/28 07:25:32;;;;;;;14.10;5.43;;;;;;;;;;2055759;28;20681;-65
2022/01/28 07:26:32;;;;;;;11.90;5.13;;;;;;;;;;2055044;28;20238;-63
2022/01/28 07:27:33;;;;;;;16.90;5.37;;;;;;;;;;2056457;28;20210;-59
2022/01/28 07:28:35;;;;;;;14.27;5.50;;;;;;;;;;2056215;28;20178;-62
2022/01/28 07:29:35;;;;;;;15.90;5.40;;;;;;;;;;2055694;28;20210;-65
2022/01/28 07:30:35;;;;;;;13.60;5.30;;;;;;;;;;2056680;28;20260;-64